sensor_id;sensor_type;location;lat;lon;timestamp;pressure;altitude;pressure_sealevel;temperature;humidity
64115;BME280;62188;35.640;139.748;2023-04-06T00:01:18;101678.68;;;20.92;41.67
64115;BME280;62188;35.640;139.748;2023-04-06T00:03:44;101681.81;;;21.06;41.43
64115;BME280;62188;35.640;139.748;2023-04-06T00:06:09;101680.49;;;21.06;41.32
64115;BME280;62188;35.640;139.748;2023-04-06T00:08:35;101677.22;;;20.94;40.43
64115;BME280;62188;35.640;139.748;2023-04-06T00:11:01;101682.97;;;21.13;40.05
64115;BME280;62188;35.640;139.748;2023-04-06T00:13:26;101684.17;;;21.35;40.28
64115;BME280;62188;35.640;139.748;2023-04-06T00:15:52;101686.97;;;21.29;40.14
64115;BME280;62188;35.640;139.748;2023-04-06T00:18:17;101688.69;;;21.36;40.19
64115;BME280;62188;35.640;139.748;2023-04-06T00:20:43;101691.75;;;21.21;39.76
64115;BME280;62188;35.640;139.748;2023-04-06T00:23:08;101692.52;;;21.49;39.66
64115;BME280;62188;35.640;139.748;2023-04-06T00:25:34;101697.36;;;21.18;40.04
64115;BME280;62188;35.640;139.748;2023-04-06T00:27:59;101688.10;;;21.08;40.32
64115;BME280;62188;35.640;139.748;2023-04-06T00:30:24;101694.24;;;21.12;40.25
64115;BME280;62188;35.640;139.748;2023-04-06T00:32:50;101692.97;;;21.30;40.12
64115;BME280;62188;35.640;139.748;2023-04-06T00:35:15;101678.30;;;21.23;39.97
64115;BME280;62188;35.640;139.748;2023-04-06T00:37:40;101679.57;;;21.29;39.79
64115;BME280;62188;35.640;139.748;2023-04-06T00:40:07;101684.02;;;21.28;39.49
64115;BME280;62188;35.640;139.748;2023-04-06T00:42:31;101668.56;;;21.36;39.39
64115;BME280;62188;35.640;139.748;2023-04-06T00:44:58;101677.25;;;21.61;39.12
64115;BME280;62188;35.640;139.748;2023-04-06T00:47:22;101667.88;;;21.50;38.67
64115;BME280;62188;35.640;139.748;2023-04-06T00:49:47;101669.39;;;21.65;38.23
64115;BME280;62188;35.640;139.748;2023-04-06T00:52:13;101664.88;;;22.10;37.70
64115;BME280;62188;35.640;139.748;2023-04-06T00:54:38;101665.61;;;22.00;37.10
64115;BME280;62188;35.640;139.748;2023-04-06T00:57:04;101665.22;;;22.43;37.07
64115;BME280;62188;35.640;139.748;2023-04-06T00:59:29;101658.10;;;21.95;36.88
64115;BME280;62188;35.640;139.748;2023-04-06T01:01:54;101654.55;;;21.94;36.59
64115;BME280;62188;35.640;139.748;2023-04-06T01:04:20;101651.54;;;21.96;36.34
64115;BME280;62188;35.640;139.748;2023-04-06T01:06:46;101651.58;;;22.26;36.18
64115;BME280;62188;35.640;139.748;2023-04-06T01:09:11;101648.32;;;21.93;35.76
64115;BME280;62188;35.640;139.748;2023-04-06T01:11:37;101640.52;;;21.97;35.70
64115;BME280;62188;35.640;139.748;2023-04-06T01:14:02;101647.59;;;22.02;35.79
64115;BME280;62188;35.640;139.748;2023-04-06T01:16:29;101644.02;;;22.29;35.65
64115;BME280;62188;35.640;139.748;2023-04-06T01:18:53;101650.99;;;22.05;35.84
64115;BME280;62188;35.640;139.748;2023-04-06T01:21:18;101644.56;;;22.24;35.70
64115;BME280;62188;35.640;139.748;2023-04-06T01:23:45;101647.41;;;21.67;36.42
64115;BME280;62188;35.640;139.748;2023-04-06T01:26:09;101640.35;;;21.96;36.35
64115;BME280;62188;35.640;139.748;2023-04-06T01:28:35;101629.47;;;21.80;36.04
64115;BME280;62188;35.640;139.748;2023-04-06T01:31:00;101630.48;;;21.85;35.91
64115;BME280;62188;35.640;139.748;2023-04-06T01:33:26;101627.57;;;21.97;35.86
64115;BME280;62188;35.640;139.748;2023-04-06T01:35:51;101632.51;;;21.96;35.92
64115;BME280;62188;35.640;139.748;2023-04-06T01:38:16;101642.51;;;21.95;35.72
64115;BME280;62188;35.640;139.748;2023-04-06T01:40:42;101634.91;;;22.11;35.34
64115;BME280;62188;35.640;139.748;2023-04-06T01:43:07;101634.84;;;22.20;35.34
64115;BME280;62188;35.640;139.748;2023-04-06T01:45:33;101648.19;;;22.19;35.33
64115;BME280;62188;35.640;139.748;2023-04-06T01:47:58;101624.62;;;21.79;35.24
64115;BME280;62188;35.640;139.748;2023-04-06T01:50:24;101628.53;;;22.20;35.07
64115;BME280;62188;35.640;139.748;2023-04-06T01:52:50;101634.32;;;22.23;35.20
64115;BME280;62188;35.640;139.748;2023-04-06T01:55:16;101634.95;;;21.78;35.53
64115;BME280;62188;35.640;139.748;2023-04-06T01:57:41;101636.78;;;22.20;35.47
64115;BME280;62188;35.640;139.748;2023-04-06T02:00:07;101633.46;;;22.26;35.45
64115;BME280;62188;35.640;139.748;2023-04-06T02:02:32;101623.41;;;21.78;35.91
64115;BME280;62188;35.640;139.748;2023-04-06T02:04:57;101623.43;;;21.81;35.98
64115;BME280;62188;35.640;139.748;2023-04-06T02:07:22;101612.32;;;21.62;36.39
64115;BME280;62188;35.640;139.748;2023-04-06T02:09:48;101608.48;;;21.77;36.26
64115;BME280;62188;35.640;139.748;2023-04-06T02:12:14;101597.62;;;21.72;36.48
64115;BME280;62188;35.640;139.748;2023-04-06T02:14:39;101598.79;;;21.44;36.68
64115;BME280;62188;35.640;139.748;2023-04-06T02:17:05;101593.45;;;21.45;36.71
64115;BME280;62188;35.640;139.748;2023-04-06T02:19:30;101595.79;;;21.25;36.93
64115;BME280;62188;35.640;139.748;2023-04-06T02:21:55;101599.85;;;21.36;36.81
64115;BME280;62188;35.640;139.748;2023-04-06T02:24:21;101603.79;;;21.56;36.74
64115;BME280;62188;35.640;139.748;2023-04-06T02:26:49;101579.72;;;21.51;36.77
64115;BME280;62188;35.640;139.748;2023-04-06T02:29:12;101570.30;;;21.67;36.40
64115;BME280;62188;35.640;139.748;2023-04-06T02:31:38;101577.10;;;21.81;36.07
64115;BME280;62188;35.640;139.748;2023-04-06T02:34:03;101579.90;;;21.77;35.95
64115;BME280;62188;35.640;139.748;2023-04-06T02:36:29;101576.75;;;21.41;35.97
64115;BME280;62188;35.640;139.748;2023-04-06T02:38:54;101574.89;;;21.77;35.85
64115;BME280;62188;35.640;139.748;2023-04-06T02:41:19;101556.10;;;21.69;35.73
64115;BME280;62188;35.640;139.748;2023-04-06T02:43:45;101542.69;;;22.40;35.29
64115;BME280;62188;35.640;139.748;2023-04-06T02:46:10;101543.35;;;22.89;34.71
64115;BME280;62188;35.640;139.748;2023-04-06T02:48:35;101547.23;;;22.05;35.06
64115;BME280;62188;35.640;139.748;2023-04-06T02:51:01;101546.30;;;22.27;35.15
64115;BME280;62188;35.640;139.748;2023-04-06T02:53:26;101544.38;;;22.15;35.38
64115;BME280;62188;35.640;139.748;2023-04-06T02:55:52;101549.79;;;22.07;35.53
64115;BME280;62188;35.640;139.748;2023-04-06T02:58:17;101555.64;;;21.98;35.60
64115;BME280;62188;35.640;139.748;2023-04-06T03:00:43;101546.65;;;21.71;36.05
64115;BME280;62188;35.640;139.748;2023-04-06T03:03:08;101544.50;;;21.91;35.99
64115;BME280;62188;35.640;139.748;2023-04-06T03:05:34;101544.32;;;22.04;35.89
64115;BME280;62188;35.640;139.748;2023-04-06T03:08:00;101544.04;;;21.89;36.08
64115;BME280;62188;35.640;139.748;2023-04-06T03:10:24;101555.65;;;21.62;35.98
64115;BME280;62188;35.640;139.748;2023-04-06T03:12:50;101544.91;;;21.70;36.23
64115;BME280;62188;35.640;139.748;2023-04-06T03:15:15;101545.04;;;21.79;36.17
64115;BME280;62188;35.640;139.748;2023-04-06T03:17:42;101556.65;;;21.99;36.41
64115;BME280;62188;35.640;139.748;2023-04-06T03:20:08;101554.27;;;21.40;36.49
64115;BME280;62188;35.640;139.748;2023-04-06T03:22:32;101551.47;;;21.81;36.39
64115;BME280;62188;35.640;139.748;2023-04-06T03:24:58;101545.59;;;21.98;36.26
64115;BME280;62188;35.640;139.748;2023-04-06T03:27:23;101532.23;;;21.83;35.98
64115;BME280;62188;35.640;139.748;2023-04-06T03:29:49;101537.23;;;21.80;35.91
64115;BME280;62188;35.640;139.748;2023-04-06T03:32:14;101534.71;;;21.88;35.71
64115;BME280;62188;35.640;139.748;2023-04-06T03:34:40;101525.71;;;21.66;35.85
64115;BME280;62188;35.640;139.748;2023-04-06T03:37:06;101529.60;;;21.87;35.70
64115;BME280;62188;35.640;139.748;2023-04-06T03:39:31;101534.80;;;21.82;35.86
64115;BME280;62188;35.640;139.748;2023-04-06T03:41:56;101534.98;;;21.46;36.44
64115;BME280;62188;35.640;139.748;2023-04-06T03:44:21;101533.05;;;21.39;36.67
64115;BME280;62188;35.640;139.748;2023-04-06T03:46:47;101530.72;;;21.47;36.68
64115;BME280;62188;35.640;139.748;2023-04-06T03:49:13;101519.30;;;21.40;36.78
64115;BME280;62188;35.640;139.748;2023-04-06T03:51:38;101512.19;;;21.49;36.65
64115;BME280;62188;35.640;139.748;2023-04-06T03:54:04;101512.35;;;21.67;36.38
64115;BME280;62188;35.640;139.748;2023-04-06T03:56:29;101500.48;;;21.46;36.37
64115;BME280;62188;35.640;139.748;2023-04-06T03:58:54;101508.32;;;21.74;36.03
64115;BME280;62188;35.640;139.748;2023-04-06T04:01:19;101511.94;;;22.01;35.49
64115;BME280;62188;35.640;139.748;2023-04-06T04:03:46;101507.58;;;22.30;35.07
64115;BME280;62188;35.640;139.748;2023-04-06T04:06:10;101495.63;;;22.66;34.51
64115;BME280;62188;35.640;139.748;2023-04-06T04:08:36;101496.68;;;23.06;34.21
64115;BME280;62188;35.640;139.748;2023-04-06T04:11:01;101490.85;;;23.31;33.61
64115;BME280;62188;35.640;139.748;2023-04-06T04:13:27;101480.44;;;23.10;33.36
64115;BME280;62188;35.640;139.748;2023-04-06T04:15:52;101475.29;;;23.10;33.53
64115;BME280;62188;35.640;139.748;2023-04-06T04:18:18;101467.43;;;23.36;33.36
64115;BME280;62188;35.640;139.748;2023-04-06T04:20:43;101453.35;;;22.94;33.61
64115;BME280;62188;35.640;139.748;2023-04-06T04:23:08;101483.66;;;23.20;33.77
64115;BME280;62188;35.640;139.748;2023-04-06T04:25:34;101445.48;;;22.17;34.54
64115;BME280;62188;35.640;139.748;2023-04-06T04:27:59;101456.42;;;22.40;34.17
64115;BME280;62188;35.640;139.748;2023-04-06T04:30:24;101451.06;;;22.63;34.17
64115;BME280;62188;35.640;139.748;2023-04-06T04:32:50;101446.99;;;22.62;34.03
64115;BME280;62188;35.640;139.748;2023-04-06T04:35:16;101443.33;;;22.78;34.03
64115;BME280;62188;35.640;139.748;2023-04-06T04:37:42;101452.73;;;22.48;34.11
64115;BME280;62188;35.640;139.748;2023-04-06T04:40:08;101448.29;;;22.48;33.99
64115;BME280;62188;35.640;139.748;2023-04-06T04:42:33;101442.87;;;23.05;33.71
64115;BME280;62188;35.640;139.748;2023-04-06T04:44:57;101439.49;;;22.97;33.91
64115;BME280;62188;35.640;139.748;2023-04-06T04:47:23;101440.41;;;22.37;34.31
64115;BME280;62188;35.640;139.748;2023-04-06T04:49:49;101438.84;;;22.37;34.36
64115;BME280;62188;35.640;139.748;2023-04-06T04:52:14;101444.49;;;22.55;34.48
64115;BME280;62188;35.640;139.748;2023-04-06T04:54:39;101432.19;;;22.04;35.20
64115;BME280;62188;35.640;139.748;2023-04-06T04:57:05;101428.89;;;22.53;35.03
64115;BME280;62188;35.640;139.748;2023-04-06T04:59:30;101450.99;;;22.23;35.25
64115;BME280;62188;35.640;139.748;2023-04-06T05:01:55;101440.45;;;21.90;35.80
64115;BME280;62188;35.640;139.748;2023-04-06T05:04:22;101423.59;;;21.82;35.77
64115;BME280;62188;35.640;139.748;2023-04-06T05:06:47;101411.54;;;21.76;36.17
64115;BME280;62188;35.640;139.748;2023-04-06T05:09:12;101429.20;;;21.72;36.17
64115;BME280;62188;35.640;139.748;2023-04-06T05:11:37;101408.51;;;21.34;37.07
64115;BME280;62188;35.640;139.748;2023-04-06T05:14:03;101404.45;;;21.70;36.42
64115;BME280;62188;35.640;139.748;2023-04-06T05:16:28;101409.05;;;21.39;36.51
64115;BME280;62188;35.640;139.748;2023-04-06T05:18:54;101409.21;;;21.50;36.49
64115;BME280;62188;35.640;139.748;2023-04-06T05:21:19;101424.44;;;21.54;36.58
64115;BME280;62188;35.640;139.748;2023-04-06T05:23:45;101420.45;;;21.46;36.75
64115;BME280;62188;35.640;139.748;2023-04-06T05:26:10;101422.53;;;20.94;37.16
64115;BME280;62188;35.640;139.748;2023-04-06T05:28:36;101414.01;;;21.56;36.80
64115;BME280;62188;35.640;139.748;2023-04-06T05:31:01;101418.91;;;21.29;36.85
64115;BME280;62188;35.640;139.748;2023-04-06T05:33:26;101407.87;;;21.57;36.65
64115;BME280;62188;35.640;139.748;2023-04-06T05:35:52;101400.33;;;21.79;36.52
64115;BME280;62188;35.640;139.748;2023-04-06T05:38:17;101400.78;;;21.60;36.75
64115;BME280;62188;35.640;139.748;2023-04-06T05:40:42;101418.50;;;21.75;36.50
64115;BME280;62188;35.640;139.748;2023-04-06T05:43:08;101398.76;;;21.73;36.61
64115;BME280;62188;35.640;139.748;2023-04-06T05:45:33;101391.15;;;21.59;36.87
64115;BME280;62188;35.640;139.748;2023-04-06T05:47:59;101391.24;;;21.77;36.57
64115;BME280;62188;35.640;139.748;2023-04-06T05:50:25;101376.77;;;21.43;36.41
64115;BME280;62188;35.640;139.748;2023-04-06T05:52:49;101389.86;;;21.33;36.39
64115;BME280;62188;35.640;139.748;2023-04-06T05:55:16;101364.37;;;21.10;36.92
64115;BME280;62188;35.640;139.748;2023-04-06T05:57:41;101367.56;;;21.62;36.90
64115;BME280;62188;35.640;139.748;2023-04-06T06:00:07;101380.94;;;21.62;37.04
64115;BME280;62188;35.640;139.748;2023-04-06T06:02:32;101359.69;;;21.44;37.15
64115;BME280;62188;35.640;139.748;2023-04-06T06:04:57;101358.75;;;21.56;37.59
64115;BME280;62188;35.640;139.748;2023-04-06T06:07:23;101378.05;;;21.53;37.64
64115;BME280;62188;35.640;139.748;2023-04-06T06:09:47;101365.23;;;20.64;38.82
64115;BME280;62188;35.640;139.748;2023-04-06T06:12:13;101359.29;;;21.00;38.68
64115;BME280;62188;35.640;139.748;2023-04-06T06:14:38;101372.97;;;21.14;38.15
64115;BME280;62188;35.640;139.748;2023-04-06T06:17:04;101365.60;;;20.99;38.73
64115;BME280;62188;35.640;139.748;2023-04-06T06:19:29;101362.67;;;20.64;38.81
64115;BME280;62188;35.640;139.748;2023-04-06T06:21:55;101346.70;;;21.14;38.69
64115;BME280;62188;35.640;139.748;2023-04-06T06:24:21;101352.29;;;21.06;38.45
64115;BME280;62188;35.640;139.748;2023-04-06T06:26:46;101347.74;;;21.56;38.15
64115;BME280;62188;35.640;139.748;2023-04-06T06:29:11;101348.87;;;21.08;38.33
64115;BME280;62188;35.640;139.748;2023-04-06T06:31:37;101357.10;;;21.45;38.38
64115;BME280;62188;35.640;139.748;2023-04-06T06:34:02;101350.00;;;20.65;38.45
64115;BME280;62188;35.640;139.748;2023-04-06T06:36:28;101350.83;;;20.46;39.17
64115;BME280;62188;35.640;139.748;2023-04-06T06:38:53;101367.31;;;20.33;39.15
64115;BME280;62188;35.640;139.748;2023-04-06T06:41:20;101355.03;;;20.71;38.56
64115;BME280;62188;35.640;139.748;2023-04-06T06:43:44;101344.70;;;20.98;38.66
64115;BME280;62188;35.640;139.748;2023-04-06T06:46:10;101333.13;;;21.03;38.31
64115;BME280;62188;35.640;139.748;2023-04-06T06:48:35;101348.74;;;20.71;37.84
64115;BME280;62188;35.640;139.748;2023-04-06T06:51:00;101356.38;;;21.34;37.74
64115;BME280;62188;35.640;139.748;2023-04-06T06:53:26;101350.55;;;21.50;37.54
64115;BME280;62188;35.640;139.748;2023-04-06T06:55:51;101338.69;;;21.80;37.33
64115;BME280;62188;35.640;139.748;2023-04-06T06:58:20;101362.11;;;21.68;37.24
64115;BME280;62188;35.640;139.748;2023-04-06T07:00:42;101365.32;;;21.19;37.79
64115;BME280;62188;35.640;139.748;2023-04-06T07:03:07;101373.44;;;20.92;38.32
64115;BME280;62188;35.640;139.748;2023-04-06T07:05:34;101370.58;;;21.17;38.15
64115;BME280;62188;35.640;139.748;2023-04-06T07:07:59;101366.28;;;21.31;38.40
64115;BME280;62188;35.640;139.748;2023-04-06T07:10:24;101380.43;;;21.14;38.77
64115;BME280;62188;35.640;139.748;2023-04-06T07:12:49;101379.42;;;20.96;38.77
64115;BME280;62188;35.640;139.748;2023-04-06T07:15:15;101370.55;;;21.40;38.91
64115;BME280;62188;35.640;139.748;2023-04-06T07:17:40;101371.91;;;21.46;38.95
64115;BME280;62188;35.640;139.748;2023-04-06T07:20:06;101398.60;;;20.89;39.17
64115;BME280;62188;35.640;139.748;2023-04-06T07:22:31;101383.26;;;21.32;39.49
64115;BME280;62188;35.640;139.748;2023-04-06T07:24:56;101384.00;;;20.81;39.53
64115;BME280;62188;35.640;139.748;2023-04-06T07:27:22;101384.76;;;21.38;39.50
64115;BME280;62188;35.640;139.748;2023-04-06T07:29:47;101386.14;;;21.31;40.06
64115;BME280;62188;35.640;139.748;2023-04-06T07:32:13;101389.94;;;21.39;39.68
64115;BME280;62188;35.640;139.748;2023-04-06T07:34:38;101394.09;;;21.10;39.87
64115;BME280;62188;35.640;139.748;2023-04-06T07:37:04;101403.82;;;20.96;40.22
64115;BME280;62188;35.640;139.748;2023-04-06T07:39:29;101408.53;;;20.77;40.89
64115;BME280;62188;35.640;139.748;2023-04-06T07:41:54;101392.18;;;20.66;40.78
64115;BME280;62188;35.640;139.748;2023-04-06T07:44:20;101372.26;;;20.86;40.90
64115;BME280;62188;35.640;139.748;2023-04-06T07:46:45;101401.64;;;20.78;41.12
64115;BME280;62188;35.640;139.748;2023-04-06T07:49:11;101392.03;;;21.06;40.75
64115;BME280;62188;35.640;139.748;2023-04-06T07:51:39;101389.37;;;21.19;40.69
64115;BME280;62188;35.640;139.748;2023-04-06T07:54:02;101395.78;;;21.02;40.86
64115;BME280;62188;35.640;139.748;2023-04-06T07:56:27;101386.60;;;21.08;40.85
64115;BME280;62188;35.640;139.748;2023-04-06T07:58:53;101395.85;;;20.84;41.00
64115;BME280;62188;35.640;139.748;2023-04-06T08:01:18;101403.92;;;20.52;41.36
64115;BME280;62188;35.640;139.748;2023-04-06T08:03:49;101392.01;;;20.58;41.57
64115;BME280;62188;35.640;139.748;2023-04-06T08:06:09;101399.36;;;20.62;41.19
64115;BME280;62188;35.640;139.748;2023-04-06T08:08:35;101402.71;;;19.88;41.86
64115;BME280;62188;35.640;139.748;2023-04-06T08:11:00;101405.64;;;20.61;41.62
64115;BME280;62188;35.640;139.748;2023-04-06T08:13:26;101409.05;;;20.70;41.54
64115;BME280;62188;35.640;139.748;2023-04-06T08:15:51;101404.48;;;20.54;41.51
64115;BME280;62188;35.640;139.748;2023-04-06T08:18:17;101420.16;;;20.80;41.29
64115;BME280;62188;35.640;139.748;2023-04-06T08:20:42;101400.30;;;20.77;41.37
64115;BME280;62188;35.640;139.748;2023-04-06T08:23:08;101396.31;;;20.15;42.21
64115;BME280;62188;35.640;139.748;2023-04-06T08:25:35;101399.38;;;20.41;42.19
64115;BME280;62188;35.640;139.748;2023-04-06T08:27:59;101401.05;;;20.22;42.20
64115;BME280;62188;35.640;139.748;2023-04-06T08:30:30;101411.62;;;20.36;41.97
64115;BME280;62188;35.640;139.748;2023-04-06T08:32:51;101401.93;;;20.48;41.84
64115;BME280;62188;35.640;139.748;2023-04-06T08:35:17;101408.00;;;20.91;41.60
64115;BME280;62188;35.640;139.748;2023-04-06T08:37:41;101411.09;;;20.48;41.86
64115;BME280;62188;35.640;139.748;2023-04-06T08:40:08;101406.96;;;20.52;42.22
64115;BME280;62188;35.640;139.748;2023-04-06T08:42:36;101412.36;;;20.40;42.03
64115;BME280;62188;35.640;139.748;2023-04-06T08:44:58;101426.28;;;20.35;41.84
64115;BME280;62188;35.640;139.748;2023-04-06T08:47:23;101422.64;;;20.94;41.75
64115;BME280;62188;35.640;139.748;2023-04-06T08:49:49;101416.09;;;20.40;42.19
64115;BME280;62188;35.640;139.748;2023-04-06T08:52:17;101422.08;;;20.47;42.17
64115;BME280;62188;35.640;139.748;2023-04-06T08:54:40;101424.50;;;20.62;42.39
64115;BME280;62188;35.640;139.748;2023-04-06T08:57:05;101406.49;;;20.12;42.90
64115;BME280;62188;35.640;139.748;2023-04-06T08:59:32;101429.67;;;20.52;42.66
64115;BME280;62188;35.640;139.748;2023-04-06T09:01:56;101427.37;;;20.18;42.95
64115;BME280;62188;35.640;139.748;2023-04-06T09:04:22;101437.09;;;20.40;43.00
64115;BME280;62188;35.640;139.748;2023-04-06T09:06:48;101436.25;;;20.10;43.10
64115;BME280;62188;35.640;139.748;2023-04-06T09:09:13;101440.82;;;20.14;43.10
64115;BME280;62188;35.640;139.748;2023-04-06T09:11:46;101431.96;;;20.26;42.92
64115;BME280;62188;35.640;139.748;2023-04-06T09:14:04;101432.55;;;20.35;42.70
64115;BME280;62188;35.640;139.748;2023-04-06T09:18:55;101434.71;;;20.48;42.42
64115;BME280;62188;35.640;139.748;2023-04-06T09:21:21;101429.16;;;20.49;42.73
64115;BME280;62188;35.640;139.748;2023-04-06T09:23:46;101448.88;;;20.13;42.90
64115;BME280;62188;35.640;139.748;2023-04-06T09:26:13;101445.01;;;20.09;43.41
64115;BME280;62188;35.640;139.748;2023-04-06T09:28:47;101448.03;;;20.17;42.96
64115;BME280;62188;35.640;139.748;2023-04-06T09:31:02;101448.25;;;20.66;42.98
64115;BME280;62188;35.640;139.748;2023-04-06T09:33:27;101461.44;;;20.25;42.95
64115;BME280;62188;35.640;139.748;2023-04-06T09:35:53;101457.96;;;20.15;43.11
64115;BME280;62188;35.640;139.748;2023-04-06T09:38:18;101451.02;;;20.64;42.64
64115;BME280;62188;35.640;139.748;2023-04-06T09:40:50;101456.27;;;20.31;42.84
64115;BME280;62188;35.640;139.748;2023-04-06T09:43:11;101465.21;;;20.15;43.42
64115;BME280;62188;35.640;139.748;2023-04-06T09:45:35;101462.96;;;20.10;43.24
64115;BME280;62188;35.640;139.748;2023-04-06T09:48:01;101461.73;;;20.22;43.10
64115;BME280;62188;35.640;139.748;2023-04-06T09:50:26;101461.41;;;20.18;43.25
64115;BME280;62188;35.640;139.748;2023-04-06T09:52:52;101469.83;;;20.14;42.93
64115;BME280;62188;35.640;139.748;2023-04-06T09:55:23;101473.52;;;20.16;43.23
64115;BME280;62188;35.640;139.748;2023-04-06T09:57:48;101482.06;;;20.32;43.02
64115;BME280;62188;35.640;139.748;2023-04-06T10:00:09;101488.02;;;20.29;43.06
64115;BME280;62188;35.640;139.748;2023-04-06T10:02:39;101485.14;;;20.25;43.49
64115;BME280;62188;35.640;139.748;2023-04-06T10:05:02;101492.20;;;20.15;43.33
64115;BME280;62188;35.640;139.748;2023-04-06T10:07:23;101487.37;;;20.26;43.55
64115;BME280;62188;35.640;139.748;2023-04-06T10:09:49;101500.10;;;20.26;43.18
64115;BME280;62188;35.640;139.748;2023-04-06T10:12:14;101500.83;;;20.44;43.45
64115;BME280;62188;35.640;139.748;2023-04-06T10:14:40;101505.56;;;20.40;43.70
64115;BME280;62188;35.640;139.748;2023-04-06T10:17:05;101512.60;;;20.84;44.96
64115;BME280;62188;35.640;139.748;2023-04-06T10:19:39;101519.32;;;20.39;44.69
64115;BME280;62188;35.640;139.748;2023-04-06T10:21:59;101514.29;;;20.47;44.22
64115;BME280;62188;35.640;139.748;2023-04-06T10:24:22;101515.50;;;20.59;44.52
64115;BME280;62188;35.640;139.748;2023-04-06T10:26:58;101514.43;;;20.61;43.69
64115;BME280;62188;35.640;139.748;2023-04-06T10:29:12;101536.04;;;20.74;44.37
64115;BME280;62188;35.640;139.748;2023-04-06T10:31:42;101531.79;;;20.52;43.63
64115;BME280;62188;35.640;139.748;2023-04-06T10:34:04;101536.58;;;20.76;43.45
64115;BME280;62188;35.640;139.748;2023-04-06T10:36:31;101534.77;;;20.74;43.89
64115;BME280;62188;35.640;139.748;2023-04-06T10:38:59;101538.85;;;20.25;44.04
64115;BME280;62188;35.640;139.748;2023-04-06T10:41:19;101550.41;;;20.79;43.66
64115;BME280;62188;35.640;139.748;2023-04-06T10:43:45;101545.67;;;20.59;44.03
64115;BME280;62188;35.640;139.748;2023-04-06T10:46:11;101536.90;;;20.36;43.95
64115;BME280;62188;35.640;139.748;2023-04-06T10:48:41;101547.72;;;20.54;44.04
64115;BME280;62188;35.640;139.748;2023-04-06T10:51:06;101546.97;;;20.59;43.98
64115;BME280;62188;35.640;139.748;2023-04-06T10:53:28;101543.80;;;20.43;43.72
64115;BME280;62188;35.640;139.748;2023-04-06T10:55:54;101542.55;;;20.41;44.04
64115;BME280;62188;35.640;139.748;2023-04-06T10:58:18;101549.86;;;20.69;43.79
64115;BME280;62188;35.640;139.748;2023-04-06T11:00:46;101547.54;;;20.66;43.65
64115;BME280;62188;35.640;139.748;2023-04-06T11:03:09;101551.01;;;20.48;43.83
64115;BME280;62188;35.640;139.748;2023-04-06T11:05:35;101541.07;;;20.10;44.01
64115;BME280;62188;35.640;139.748;2023-04-06T11:08:00;101541.67;;;20.43;43.92
64115;BME280;62188;35.640;139.748;2023-04-06T11:10:25;101539.09;;;20.51;43.70
64115;BME280;62188;35.640;139.748;2023-04-06T11:12:54;101536.65;;;20.56;43.90
64115;BME280;62188;35.640;139.748;2023-04-06T11:15:16;101538.14;;;20.51;43.76
64115;BME280;62188;35.640;139.748;2023-04-06T11:17:41;101542.16;;;20.04;43.96
64115;BME280;62188;35.640;139.748;2023-04-06T11:20:11;101532.97;;;20.27;44.01
64115;BME280;62188;35.640;139.748;2023-04-06T11:22:33;101534.98;;;20.13;44.20
64115;BME280;62188;35.640;139.748;2023-04-06T11:25:06;101529.54;;;20.17;44.07
64115;BME280;62188;35.640;139.748;2023-04-06T11:27:24;101525.77;;;20.36;44.17
64115;BME280;62188;35.640;139.748;2023-04-06T11:29:49;101528.62;;;20.46;44.08
64115;BME280;62188;35.640;139.748;2023-04-06T11:32:21;101522.23;;;20.25;44.24
64115;BME280;62188;35.640;139.748;2023-04-06T11:34:41;101524.89;;;20.02;44.64
64115;BME280;62188;35.640;139.748;2023-04-06T11:37:11;101527.66;;;20.15;44.44
64115;BME280;62188;35.640;139.748;2023-04-06T11:39:31;101538.65;;;19.92;44.77
64115;BME280;62188;35.640;139.748;2023-04-06T11:41:59;101539.33;;;19.90;44.85
64115;BME280;62188;35.640;139.748;2023-04-06T11:44:34;101538.23;;;19.80;45.07
64115;BME280;62188;35.640;139.748;2023-04-06T11:46:52;101543.93;;;19.94;44.84
64115;BME280;62188;35.640;139.748;2023-04-06T11:49:18;101526.65;;;19.85;44.93
64115;BME280;62188;35.640;139.748;2023-04-06T11:51:38;101529.75;;;20.26;44.68
64115;BME280;62188;35.640;139.748;2023-04-06T11:54:03;101536.59;;;20.24;44.32
64115;BME280;62188;35.640;139.748;2023-04-06T11:56:29;101527.82;;;20.24;44.17
64115;BME280;62188;35.640;139.748;2023-04-06T11:58:55;101541.88;;;20.24;44.11
64115;BME280;62188;35.640;139.748;2023-04-06T12:01:21;101533.57;;;20.04;43.98
64115;BME280;62188;35.640;139.748;2023-04-06T12:03:46;101533.89;;;20.31;43.90
64115;BME280;62188;35.640;139.748;2023-04-06T12:06:10;101534.37;;;20.26;43.89
64115;BME280;62188;35.640;139.748;2023-04-06T12:08:36;101543.22;;;20.46;43.92
64115;BME280;62188;35.640;139.748;2023-04-06T12:11:02;101546.14;;;19.93;43.97
64115;BME280;62188;35.640;139.748;2023-04-06T12:13:27;101539.25;;;19.86;44.44
64115;BME280;62188;35.640;139.748;2023-04-06T12:15:53;101535.85;;;19.90;44.09
64115;BME280;62188;35.640;139.748;2023-04-06T12:18:18;101535.63;;;20.45;43.71
64115;BME280;62188;35.640;139.748;2023-04-06T12:20:44;101533.99;;;20.23;43.68
64115;BME280;62188;35.640;139.748;2023-04-06T12:23:09;101532.05;;;20.28;43.63